Falls Creek, Pennsylvania
Current Conditions -  °F | °C
As of 1:11 PM on Thursday 29 Jan 2015 (Local Time) from KDUJ Reporting Station
Light Snow Light Snow  
Wind Chill: 19°   Ceiling: 2600
Heat Index: 28°   Visibility: 1.5mi
Dew Point: 14°   Wind: 9mph
Humidity: 56%   Direction: 170°S
Pressure: 29.87"   Gusts: NA
Location:  41.15°N, 78.8°W
Report Text: KDUJ 291811Z AUTO 17008KT 1 1/2SM -SN BKN026 OVC032 M02/M10 A2987 RMK AO2 SNB02 P0000 T10221100
Loading
Personal Weather Stations






























Interactive Weather Map New forecast layout! Learn more

10-Day Weather Forecast

Advertisements
Track Severe Weather on mobile